Time;durP1;ratioP1;P1;durP2;ratioP2;P2;SDS_P1;SDS_P2;PMS_P1;PMS_P2;Temp;Humidity;BMP_temperature;BMP_pressure;BME280_temperature;BME280_humidity;BME280_pressure;Samples;Min_cycle;Max_cycle;Signal;HPM_P1;HPM_P2
2022/08/04 00:02:23;;;;;;;9.93;5.72;;;;;;;20.28;93.72;100296.64;1719812;83;21491;-58
2022/08/04 00:05:05;;;;;;;6.87;5.20;;;;;;;20.27;93.88;100297.19;1719890;83;21059;-58
2022/08/04 00:07:52;;;;;;;5.58;4.80;;;;;;;20.32;94.17;100298.63;1692412;85;21106;-60
2022/08/04 00:10:21;;;;;;;6.47;5.33;;;;;;;20.32;93.81;100306.13;1719532;83;21444;-57
2022/08/04 00:12:51;;;;;;;7.33;5.62;;;;;;;20.28;93.64;100303.05;1720720;83;21433;-58
2022/08/04 00:15:20;;;;;;;7.00;5.10;;;;;;;20.25;93.63;100311.36;1721786;83;21099;-57
2022/08/04 00:17:56;;;;;;;8.08;5.45;;;;;;;20.25;93.61;100310.52;1721306;83;21092;-57
2022/08/04 00:20:32;;;;;;;6.22;4.75;;;;;;;20.28;93.61;100306.38;1721729;83;21132;-57
2022/08/04 00:23:05;;;;;;;6.03;5.20;;;;;;;20.29;93.40;100307.50;1721713;83;21068;-56
2022/08/04 00:25:40;;;;;;;8.20;5.85;;;;;;;20.28;93.35;100312.78;1721572;83;21072;-56
2022/08/04 00:28:10;;;;;;;9.23;5.97;;;;;;;20.29;93.55;100312.23;1721666;83;21425;-58
2022/08/04 00:30:41;;;;;;;8.10;5.50;;;;;;;20.31;93.30;100310.02;1706778;83;21056;-56
2022/08/04 00:33:10;;;;;;;7.65;5.67;;;;;;;20.31;93.25;100309.47;1714944;83;21503;-58
2022/08/04 00:35:41;;;;;;;7.60;5.90;;;;;;;20.31;93.09;100308.08;1716212;83;21107;-57
2022/08/04 00:38:10;;;;;;;7.22;6.08;;;;;;;20.30;92.79;100309.73;1715982;83;21402;-57
2022/08/04 00:41:07;;;;;;;7.33;6.40;;;;;;;20.23;92.76;100305.22;1715929;83;21092;-57
2022/08/04 00:43:50;;;;;;;7.58;6.05;;;;;;;20.20;93.09;100304.36;1717132;83;21117;-57
2022/08/04 00:46:32;;;;;;;7.47;6.03;;;;;;;20.20;93.27;100309.09;1718414;83;21453;-57
2022/08/04 00:49:49;;;;;;;8.93;6.45;;;;;;;20.19;93.36;100307.41;1677366;83;21074;-58
2022/08/04 00:52:33;;;;;;;7.75;6.58;;;;;;;20.19;93.69;100306.86;1701492;84;21533;-57
2022/08/04 00:55:57;;;;;;;8.33;6.55;;;;;;;20.21;93.84;100312.16;1701792;83;21034;-57
2022/08/04 00:59:05;;;;;;;7.22;6.12;;;;;;;20.21;93.90;100307.98;1714077;83;21007;-57
2022/08/04 01:01:48;;;;;;;8.43;6.33;;;;;;;20.21;94.09;100317.72;1714193;84;21043;-57
2022/08/04 01:04:39;;;;;;;7.40;6.15;;;;;;;20.22;94.20;100311.89;1701597;83;21058;-57
2022/08/04 01:07:26;;;;;;;8.90;7.03;;;;;;;20.24;94.21;100319.97;1701676;84;21473;-57
2022/08/04 01:10:34;;;;;;;8.60;7.03;;;;;;;20.23;94.26;100321.92;1716275;83;21062;-57
2022/08/04 01:13:31;;;;;;;9.53;7.30;;;;;;;20.25;94.27;100317.48;1716589;83;21039;-57
2022/08/04 01:16:04;;;;;;;9.83;7.45;;;;;;;20.22;93.95;100327.20;1717658;82;21003;-57
2022/08/04 01:18:51;;;;;;;8.45;7.37;;;;;;;20.17;93.97;100320.73;1731018;83;21026;-57
2022/08/04 01:21:51;;;;;;;10.48;7.85;;;;;;;20.15;94.28;100321.52;1727581;83;21054;-57
2022/08/04 01:24:41;;;;;;;9.28;7.53;;;;;;;20.16;94.49;100328.25;1727328;83;21011;-59
2022/08/04 01:28:05;;;;;;;8.70;7.20;;;;;;;20.18;94.51;100323.26;1728941;83;21002;-58
2022/08/04 01:30:34;;;;;;;11.00;7.35;;;;;;;20.20;94.51;100325.78;1730757;83;21043;-57
2022/08/04 01:33:09;;;;;;;13.53;7.95;;;;;;;20.20;94.67;100326.62;1729884;83;21062;-59
2022/08/04 01:35:55;;;;;;;12.10;7.97;;;;;;;20.21;94.62;100332.47;1716372;83;21097;-57
2022/08/04 01:38:35;;;;;;;11.70;7.90;;;;;;;20.24;94.81;100336.67;1716227;83;21119;-57
2022/08/04 01:41:14;;;;;;;10.30;7.47;;;;;;;20.27;94.67;100331.97;1716268;83;21063;-57
2022/08/04 01:43:47;;;;;;;12.33;7.22;;;;;;;20.26;94.62;100333.07;1718608;83;21069;-58
2022/08/04 01:46:17;;;;;;;10.05;7.90;;;;;;;20.26;94.47;100333.91;1710451;83;21055;-56
2022/08/04 01:48:47;;;;;;;9.75;7.60;;;;;;;20.25;94.36;100329.45;1714270;84;21067;-57
2022/08/04 01:51:17;;;;;;;11.35;7.90;;;;;;;20.24;94.17;100334.73;1660444;84;21039;-58
2022/08/04 01:53:46;;;;;;;9.90;7.62;;;;;;;20.20;94.25;100335.52;1713973;84;21019;-57
2022/08/04 01:56:15;;;;;;;12.50;8.03;;;;;;;20.18;94.38;100330.22;1714054;83;21037;-57
2022/08/04 01:58:45;;;;;;;9.85;7.97;;;;;;;20.18;94.47;100341.34;1725438;83;21499;-57
2022/08/04 02:01:14;;;;;;;9.38;7.87;;;;;;;20.17;94.64;100325.75;1732445;83;21003;-57
2022/08/04 02:03:45;;;;;;;10.63;8.33;;;;;;;20.16;94.80;100324.63;1729447;83;21118;-58
2022/08/04 02:06:30;;;;;;;10.72;8.30;;;;;;;20.17;95.05;100324.36;1710135;84;21036;-57
2022/08/04 02:09:34;;;;;;;10.25;8.55;;;;;;;20.18;95.08;100322.42;1723539;83;21038;-57
2022/08/04 02:12:16;;;;;;;13.13;8.80;;;;;;;20.18;95.15;100323.81;1713444;83;21031;-58
2022/08/04 02:15:03;;;;;;;12.37;8.65;;;;;;;20.18;95.18;100319.64;1732303;83;21469;-59
2022/08/04 02:17:51;;;;;;;10.98;8.80;;;;;;;20.19;95.29;100319.92;1732246;83;21087;-57
2022/08/04 02:20:37;;;;;;;10.30;8.80;;;;;;;20.18;95.36;100319.64;1732424;83;21475;-58
2022/08/04 02:23:10;;;;;;;13.25;8.83;;;;;;;20.19;95.44;100327.72;1718475;83;21061;-57
2022/08/04 02:25:45;;;;;;;12.47;9.23;;;;;;;20.19;95.43;100323.55;1674181;84;21002;-57
2022/08/04 02:28:41;;;;;;;14.63;9.08;;;;;;;20.20;95.37;100323.00;1701657;84;21122;-57
2022/08/04 02:31:21;;;;;;;11.38;9.10;;;;;;;20.22;95.47;100323.58;1700694;84;21181;-57
2022/08/04 02:34:20;;;;;;;11.75;9.38;;;;;;;20.20;95.18;100325.78;1707086;83;20992;-57
2022/08/04 02:36:50;;;;;;;12.45;9.55;;;;;;;20.14;95.19;100325.41;1674151;84;21513;-57
2022/08/04 02:39:20;;;;;;;12.68;9.58;;;;;;;20.09;95.51;100316.45;1691584;85;20999;-57
2022/08/04 02:41:49;;;;;;;12.13;9.48;;;;;;;20.10;95.74;100318.69;1705110;82;21015;-57
2022/08/04 02:44:22;;;;;;;13.55;9.35;;;;;;;20.11;95.78;100317.03;1699684;84;21050;-57
2022/08/04 02:46:52;;;;;;;14.00;9.23;;;;;;;20.09;95.85;100319.23;1728508;83;21065;-58
2022/08/04 02:49:22;;;;;;;12.88;8.83;;;;;;;20.11;95.89;100318.98;1700286;83;21462;-58
2022/08/04 02:51:53;;;;;;;13.48;9.73;;;;;;;20.12;95.96;100312.31;1699519;84;21053;-58
2022/08/04 02:54:29;;;;;;;10.98;9.43;;;;;;;20.13;96.06;100315.38;1699735;84;21536;-56
2022/08/04 02:57:01;;;;;;;11.83;9.10;;;;;;;20.14;96.16;100316.52;1699626;84;21082;-58
2022/08/04 02:59:41;;;;;;;15.05;9.55;;;;;;;20.15;96.01;100306.22;1705752;83;21043;-57
2022/08/04 03:02:10;;;;;;;15.72;9.75;;;;;;;20.15;95.86;100314.02;1696564;84;21098;-58
2022/08/04 03:04:59;;;;;;;12.90;9.45;;;;;;;20.12;95.58;100309.53;1700152;84;21050;-58
2022/08/04 03:08:02;;;;;;;12.93;9.53;;;;;;;20.10;95.83;100305.62;1672085;86;21079;-57
2022/08/04 03:11:20;;;;;;;12.50;9.88;;;;;;;20.12;95.80;100305.36;1670858;84;21115;-57
2022/08/04 03:14:24;;;;;;;11.60;9.43;;;;;;;20.13;95.92;100311.20;1701463;83;20992;-58
2022/08/04 03:17:08;;;;;;;14.70;9.40;;;;;;;20.11;95.85;100312.86;1712451;84;21091;-57
2022/08/04 03:20:22;;;;;;;13.30;9.90;;;;;;;20.12;95.88;100310.92;1712325;84;21051;-58
2022/08/04 03:23:01;;;;;;;11.93;9.90;;;;;;;20.11;95.80;100309.24;1712191;83;21032;-57
2022/08/04 03:26:02;;;;;;;16.90;10.18;;;;;;;20.11;95.86;100310.63;1692930;84;21091;-58
2022/08/04 03:29:10;;;;;;;11.95;9.50;;;;;;;20.15;96.01;100314.56;1723227;83;21003;-57
2022/08/04 03:32:17;;;;;;;14.70;10.60;;;;;;;20.18;95.74;100311.29;1689398;85;21477;-58
2022/08/04 03:35:23;;;;;;;13.13;9.83;;;;;;;20.16;95.73;100305.15;1695034;84;21074;-57
2022/08/04 03:38:12;;;;;;;13.95;9.70;;;;;;;20.15;95.80;100301.50;1723290;83;21036;-57
2022/08/04 03:40:59;;;;;;;15.32;9.93;;;;;;;20.20;95.82;100306.30;1720975;83;21083;-57
2022/08/04 03:43:42;;;;;;;16.03;10.20;;;;;;;20.20;95.55;100311.87;1697560;84;21202;-57
2022/08/04 03:46:35;;;;;;;13.40;10.35;;;;;;;20.21;95.57;100318.56;1702957;84;21078;-57
2022/08/04 03:49:10;;;;;;;14.50;10.25;;;;;;;20.23;95.62;100315.52;1705991;84;21066;-58
2022/08/04 03:55:45;;;;;;;12.15;9.90;;;;;;;20.27;95.47;100313.88;1704454;83;21046;-56
2022/08/04 03:58:35;;;;;;;13.53;9.80;;;;;;;20.25;95.16;100324.44;1704436;84;21066;-58
2022/08/04 04:01:45;;;;;;;12.37;10.00;;;;;;;20.24;95.24;100326.38;1691061;84;21056;-59
2022/08/04 04:04:40;;;;;;;13.45;9.75;;;;;;;20.24;95.23;100326.38;1672134;85;21534;-57
2022/08/04 04:07:41;;;;;;;12.07;9.50;;;;;;;20.31;95.29;100337.84;1674421;85;21492;-58
2022/08/04 04:10:30;;;;;;;15.05;9.65;;;;;;;20.35;95.21;100328.71;1675810;85;21084;-58
2022/08/04 04:13:20;;;;;;;14.10;10.08;;;;;;;20.41;95.19;100329.63;1676033;85;21052;-59
2022/08/04 04:16:25;;;;;;;13.58;10.10;;;;;;;20.51;95.12;100333.34;1687618;84;21443;-58
2022/08/04 04:19:30;;;;;;;12.73;9.70;;;;;;;20.58;94.41;100332.56;1704133;84;21483;-59
2022/08/04 04:22:21;;;;;;;11.88;9.50;;;;;;;20.66;94.06;100335.97;1707457;84;21055;-57
2022/08/04 04:25:20;;;;;;;13.45;10.18;;;;;;;20.69;93.46;100336.83;1651402;84;21054;-57
2022/08/04 04:28:33;;;;;;;14.63;10.20;;;;;;;20.70;93.11;100337.11;1676098;85;21047;-57
2022/08/04 04:31:46;;;;;;;15.00;11.90;;;;;;;20.70;92.86;100338.50;1674139;85;21041;-58
2022/08/04 04:34:50;;;;;;;14.00;10.43;;;;;;;20.73;92.76;100340.20;1675919;85;21080;-59
2022/08/04 04:38:07;;;;;;;11.93;9.88;;;;;;;20.78;92.26;100338.02;1676059;85;21468;-59
2022/08/04 04:41:05;;;;;;;14.23;10.68;;;;;;;20.79;91.82;100333.56;1679376;83;21078;-59
2022/08/04 04:43:50;;;;;;;;;;;;;;;20.76;91.50;100336.89;1706641;83;21579;-59
2022/08/04 04:46:39;;;;;;;16.48;10.70;;;;;;;20.73;91.68;100340.20;1698916;83;20154;-59
2022/08/04 04:49:26;;;;;;;16.05;10.80;;;;;;;20.76;91.92;100341.62;1704389;83;21117;-58
2022/08/04 04:52:10;;;;;;;15.27;11.20;;;;;;;20.83;91.85;100338.92;1725167;83;21003;-58
2022/08/04 04:54:53;;;;;;;17.02;11.33;;;;;;;20.85;91.51;100338.10;1725024;83;21731;-58
2022/08/04 04:57:24;;;;;;;17.52;11.10;;;;;;;20.86;91.44;100343.13;1727223;83;21062;-58
2022/08/04 05:00:01;;;;;;;17.30;11.95;;;;;;;20.89;91.33;100335.63;1731346;81;20999;-58
2022/08/04 05:02:54;;;;;;;15.75;11.73;;;;;;;20.89;90.93;100338.41;1748473;81;21015;-60
2022/08/04 05:05:39;;;;;;;16.12;11.00;;;;;;;20.89;90.81;100343.98;1765550;81;21074;-58
2022/08/04 05:08:34;;;;;;;18.65;12.10;;;;;;;20.89;90.89;100349.55;1763295;81;21058;-58
2022/08/04 05:11:46;;;;;;;15.68;11.75;;;;;;;20.88;90.72;100343.70;1759554;81;21074;-59
2022/08/04 05:14:34;;;;;;;18.12;12.07;;;;;;;20.86;90.76;100351.48;1762163;81;21085;-58
2022/08/04 05:17:20;;;;;;;18.40;12.05;;;;;;;20.85;90.92;100352.03;1763597;81;21086;-58
2022/08/04 05:20:28;;;;;;;15.65;12.40;;;;;;;20.84;90.90;100353.69;1766114;81;20990;-59
2022/08/04 05:23:02;;;;;;;20.17;11.05;;;;;;;20.83;91.05;100349.23;1765759;81;21026;-60
2022/08/04 05:25:57;;;;;;;14.53;11.30;;;;;;;20.80;90.85;100349.17;1732210;81;21035;-58
2022/08/04 05:28:42;;;;;;;15.18;11.40;;;;;;;20.82;90.89;100354.51;1699221;84;21034;-58
2022/08/04 05:31:18;;;;;;;16.32;12.07;;;;;;;20.79;90.82;100356.41;1731796;81;21098;-57
2022/08/04 05:34:03;;;;;;;17.42;11.60;;;;;;;20.79;90.84;100358.63;1731904;83;21030;-58
2022/08/04 05:36:48;;;;;;;15.65;11.57;;;;;;;20.82;90.99;100354.51;1744723;81;21019;-59
2022/08/04 05:39:24;;;;;;;18.82;13.48;;;;;;;20.84;91.05;100360.66;1744865;81;21095;-58
2022/08/04 05:41:53;;;;;;;16.52;12.53;;;;;;;20.87;91.10;100362.35;1747679;81;21446;-58
2022/08/04 05:44:25;;;;;;;19.52;13.20;;;;;;;20.93;91.13;100366.02;1758090;81;21454;-58
2022/08/04 05:46:57;;;;;;;20.05;12.18;;;;;;;20.97;90.69;100368.55;1761948;81;21078;-58
2022/08/04 05:49:28;;;;;;;15.30;11.25;;;;;;;20.99;90.33;100371.91;1762200;81;21069;-59
2022/08/04 05:52:02;;;;;;;18.87;11.80;;;;;;;21.01;90.09;100375.82;1762098;81;21066;-59
2022/08/04 05:54:33;;;;;;;15.63;11.83;;;;;;;21.01;89.82;100381.39;1751163;81;21027;-59
2022/08/04 05:57:04;;;;;;;19.75;12.03;;;;;;;21.00;89.70;100376.92;1744619;81;21032;-57
2022/08/04 05:59:37;;;;;;;15.85;12.50;;;;;;;20.99;89.68;100376.09;1744882;81;21035;-58
2022/08/04 06:02:07;;;;;;;16.40;12.07;;;;;;;21.02;89.58;100378.34;1744800;82;21066;-59
2022/08/04 06:04:39;;;;;;;14.95;11.33;;;;;;;21.04;89.42;100376.13;1745039;81;21513;-58
2022/08/04 06:07:10;;;;;;;16.40;11.65;;;;;;;21.05;89.27;100375.57;1745099;81;21027;-60
2022/08/04 06:09:40;;;;;;;19.82;12.70;;;;;;;21.08;89.19;100374.48;1766158;81;21023;-59
2022/08/04 06:12:18;;;;;;;17.67;12.73;;;;;;;21.12;89.15;100373.39;1759921;81;21468;-61
2022/08/04 06:14:51;;;;;;;16.80;12.13;;;;;;;21.12;88.86;100369.22;1716439;82;21074;-57
2022/08/04 06:17:35;;;;;;;17.62;12.00;;;;;;;21.14;88.94;100376.20;1699486;83;21001;-60
2022/08/04 06:20:08;;;;;;;16.95;11.63;;;;;;;21.25;89.09;100372.12;1696351;83;21046;-59
2022/08/04 06:22:40;;;;;;;18.42;12.93;;;;;;;21.37;89.04;100368.56;1695440;84;21106;-59
2022/08/04 06:25:12;;;;;;;17.55;12.35;;;;;;;21.50;88.73;100374.53;1696064;84;21078;-59
2022/08/04 06:27:40;;;;;;;17.27;11.90;;;;;;;21.66;87.92;100372.66;1718217;83;21060;-59
2022/08/04 06:30:13;;;;;;;15.50;11.33;;;;;;;21.86;87.17;100372.45;1724868;83;21466;-58
2022/08/04 06:32:54;;;;;;;14.63;11.70;;;;;;;22.07;85.19;100368.66;1728736;83;21047;-58
2022/08/04 06:35:21;;;;;;;17.45;12.10;;;;;;;22.36;84.68;100371.27;1729727;83;21033;-60
2022/08/04 06:37:51;;;;;;;16.27;11.70;;;;;;;22.63;82.79;100374.38;1732165;83;21043;-59
2022/08/04 06:40:23;;;;;;;14.20;12.03;;;;;;;22.74;81.91;100375.50;1731465;83;21055;-59
2022/08/04 06:42:54;;;;;;;17.42;11.50;;;;;;;22.77;80.67;100373.58;1717655;83;21440;-59
2022/08/04 06:45:24;;;;;;;18.15;12.07;;;;;;;22.74;79.83;100377.45;1711255;83;21063;-58
2022/08/04 06:47:54;;;;;;;17.25;12.93;;;;;;;22.65;79.61;100368.79;1700370;83;21027;-58
2022/08/04 06:50:24;;;;;;;17.92;12.78;;;;;;;22.59;80.23;100373.26;1670460;84;21090;-58
2022/08/04 06:52:54;;;;;;;18.35;12.37;;;;;;;22.58;80.34;100368.23;1666214;84;21083;-60
2022/08/04 06:55:24;;;;;;;16.37;12.00;;;;;;;22.57;80.21;100367.95;1698965;83;21027;-59
2022/08/04 06:57:54;;;;;;;16.90;11.88;;;;;;;22.57;80.12;100374.09;1722827;83;21513;-59
2022/08/04 07:00:25;;;;;;;15.68;12.50;;;;;;;22.54;80.04;100374.09;1731035;83;21510;-58
2022/08/04 07:02:56;;;;;;;17.15;12.80;;;;;;;22.48;79.89;100370.17;1731937;83;21081;-59
2022/08/04 07:05:26;;;;;;;19.30;12.28;;;;;;;22.42;80.50;100367.38;1731902;83;21014;-59
2022/08/04 07:07:56;;;;;;;16.40;12.40;;;;;;;22.41;80.55;100374.07;1731409;83;21038;-60
2022/08/04 07:10:27;;;;;;;15.23;11.65;;;;;;;22.38;80.58;100366.25;1699276;84;21071;-62
2022/08/04 07:12:57;;;;;;;15.93;11.90;;;;;;;22.38;80.81;100366.25;1699037;84;21529;-59
2022/08/04 07:15:26;;;;;;;18.70;12.78;;;;;;;22.42;80.93;100360.95;1698994;83;21471;-60
2022/08/04 07:18:03;;;;;;;17.80;13.13;;;;;;;22.45;80.96;100364.59;1699334;84;21127;-59
2022/08/04 07:20:28;;;;;;;19.95;12.37;;;;;;;22.51;80.28;100365.42;1731268;83;21561;-59
2022/08/04 07:23:00;;;;;;;20.50;11.90;;;;;;;22.57;80.13;100365.72;1751975;81;21109;-59
2022/08/04 07:25:30;;;;;;;15.60;12.37;;;;;;;22.66;80.00;100364.05;1761981;81;21034;-61
2022/08/04 07:28:00;;;;;;;16.37;12.58;;;;;;;22.78;79.34;100362.69;1740590;81;21133;-58
2022/08/04 07:30:30;;;;;;;13.30;11.08;;;;;;;22.89;78.94;100362.15;1732118;83;21034;-59
2022/08/04 07:32:59;;;;;;;14.00;10.98;;;;;;;22.99;77.95;100355.16;1737445;81;21090;-59
2022/08/04 07:35:29;;;;;;;19.42;11.45;;;;;;;23.14;76.92;100368.84;1747485;79;22150;-60
2022/08/04 07:38:00;;;;;;;15.68;12.70;;;;;;;23.20;76.72;100360.16;1777159;79;21070;-62
2022/08/04 07:40:30;;;;;;;16.90;12.28;;;;;;;23.22;75.83;100362.67;1756341;79;21040;-61
2022/08/04 07:42:59;;;;;;;14.98;12.03;;;;;;;23.21;75.80;100358.20;1754234;81;21498;-61
2022/08/04 07:45:29;;;;;;;15.78;11.43;;;;;;;23.20;75.35;100354.56;1763074;81;21050;-61
2022/08/04 07:47:58;;;;;;;17.05;10.75;;;;;;;23.21;75.67;100360.99;1751153;81;21054;-60
2022/08/04 07:50:30;;;;;;;17.32;12.15;;;;;;;23.32;75.11;100358.45;1731762;82;21042;-61
2022/08/04 07:53:00;;;;;;;18.00;12.05;;;;;;;23.39;75.10;100365.42;1731980;83;21034;-60
2022/08/04 07:55:32;;;;;;;18.87;12.90;;;;;;;23.49;74.77;100359.00;1742119;81;21435;-60
2022/08/04 07:58:01;;;;;;;21.17;13.62;;;;;;;23.52;74.54;100359.83;1761110;81;21053;-63
2022/08/04 08:00:30;;;;;;;18.40;13.05;;;;;;;23.57;74.23;100357.61;1758043;81;21083;-61
2022/08/04 08:02:59;;;;;;;16.55;12.50;;;;;;;23.62;74.51;100358.98;1757888;81;21051;-60
2022/08/04 08:05:28;;;;;;;21.50;12.78;;;;;;;23.69;73.97;100364.55;1758090;81;21562;-63
2022/08/04 08:07:58;;;;;;;20.70;12.70;;;;;;;23.68;73.90;100362.87;1757094;81;21113;-62
2022/08/04 08:10:27;;;;;;;16.67;11.83;;;;;;;23.69;73.99;100363.72;1702458;81;21461;-61
2022/08/04 08:12:58;;;;;;;20.50;12.00;;;;;;;23.71;73.71;100363.70;1759713;81;21034;-60
2022/08/04 08:15:27;;;;;;;15.65;12.58;;;;;;;23.75;73.66;100366.77;1752685;81;21465;-60
2022/08/04 08:17:58;;;;;;;23.83;13.53;;;;;;;23.84;73.57;100361.42;1761137;81;21132;-61
2022/08/04 08:20:30;;;;;;;19.07;12.13;;;;;;;23.94;73.15;100362.20;1731518;81;21056;-61
2022/08/04 08:23:00;;;;;;;16.85;11.97;;;;;;;24.01;72.31;100366.09;1753765;81;21440;-61
2022/08/04 08:25:34;;;;;;;15.85;11.40;;;;;;;24.01;71.99;100368.33;1744628;81;21424;-62
2022/08/04 08:28:05;;;;;;;19.67;12.23;;;;;;;24.03;71.51;100367.48;1744830;82;21019;-60
2022/08/04 08:30:34;;;;;;;15.45;10.65;;;;;;;24.05;71.66;100369.98;1744636;82;21471;-61
2022/08/04 08:33:08;;;;;;;15.20;11.70;;;;;;;24.04;71.14;100359.35;1744716;82;21035;-65
2022/08/04 08:36:17;;;;;;;17.50;11.53;;;;;;;24.02;71.21;100371.41;1754457;81;21551;-60
2022/08/04 08:39:13;;;;;;;14.93;11.03;;;;;;;24.03;71.18;100370.84;1758112;81;21002;-61
2022/08/04 08:42:38;;;;;;;12.18;10.13;;;;;;;24.04;71.22;100358.52;1757315;81;21038;-61
2022/08/04 08:45:17;;;;;;;13.75;11.25;;;;;;;24.01;70.32;100361.33;1758185;81;21143;-61
2022/08/04 08:47:58;;;;;;;13.85;11.10;;;;;;;23.95;70.70;100366.67;1757922;81;21070;-60
2022/08/04 08:50:55;;;;;;;13.48;10.98;;;;;;;23.96;70.18;100361.92;1744006;82;21051;-61
2022/08/04 08:54:00;;;;;;;17.57;10.80;;;;;;;23.93;69.69;100363.89;1752280;81;21516;-61
2022/08/04 08:56:46;;;;;;;12.35;10.32;;;;;;;23.90;69.44;100356.91;1761641;81;21077;-62
2022/08/04 08:59:33;;;;;;;15.35;10.23;;;;;;;23.97;70.08;100364.43;1762133;81;21533;-62
2022/08/04 09:02:29;;;;;;;14.53;10.72;;;;;;;24.16;68.91;100370.80;1737598;80;21435;-62
2022/08/04 09:05:42;;;;;;;13.58;11.05;;;;;;;24.34;68.36;100359.80;1746277;81;20995;-61
2022/08/04 09:08:29;;;;;;;13.58;10.70;;;;;;;24.65;67.04;100360.98;1761789;81;21508;-62
2022/08/04 09:11:03;;;;;;;12.58;11.08;;;;;;;25.07;65.28;100362.36;1762064;81;21117;-63
2022/08/04 09:13:40;;;;;;;14.33;10.08;;;;;;;25.27;65.35;100357.95;1765198;81;21194;-60
2022/08/04 09:16:27;;;;;;;10.88;9.73;;;;;;;25.42;64.41;100353.61;1752696;81;21082;-63
2022/08/04 09:19:14;;;;;;;17.07;11.22;;;;;;;25.50;62.95;100357.16;1744794;81;20992;-61
2022/08/04 09:22:02;;;;;;;15.58;10.55;;;;;;;25.55;62.35;100352.89;1740559;81;21075;-62
2022/08/04 09:25:10;;;;;;;11.93;10.03;;;;;;;25.52;62.71;100355.46;1744729;81;21035;-61
2022/08/04 09:27:56;;;;;;;13.72;9.88;;;;;;;25.51;62.92;100356.59;1698278;84;21531;-61
2022/08/04 09:31:00;;;;;;;16.55;10.60;;;;;;;25.52;63.02;100347.88;1734398;81;21078;-61
2022/08/04 09:33:38;;;;;;;12.75;10.32;;;;;;;25.50;62.70;100361.94;1744878;81;21159;-59
2022/08/04 09:36:32;;;;;;;15.70;10.18;;;;;;;25.44;61.73;100360.33;1743696;82;21078;-61
2022/08/04 09:39:49;;;;;;;13.68;9.55;;;;;;;25.30;62.90;100353.15;1758381;81;21062;-61
2022/08/04 09:42:28;;;;;;;12.50;9.70;;;;;;;25.27;63.06;100352.34;1760603;81;21102;-60
2022/08/04 09:45:23;;;;;;;12.23;10.58;;;;;;;25.30;63.29;100351.75;1758435;81;21079;-61
2022/08/04 09:47:59;;;;;;;14.38;10.13;;;;;;;25.35;63.24;100355.06;1756415;81;21051;-58
2022/08/04 09:50:37;;;;;;;13.43;10.75;;;;;;;25.33;62.89;100358.16;1754355;81;21007;-60
2022/08/04 09:53:30;;;;;;;21.75;12.37;;;;;;;25.36;63.25;100349.72;1762305;81;21165;-59
2022/08/04 09:56:11;;;;;;;12.73;9.80;;;;;;;25.45;63.60;100358.63;1766012;81;21058;-57
2022/08/04 09:58:58;;;;;;;13.15;9.83;;;;;;;25.60;62.35;100359.02;1766067;81;21062;-59
2022/08/04 10:01:29;;;;;;;13.13;10.10;;;;;;;25.65;62.06;100351.10;1731865;81;21477;-57
2022/08/04 10:04:02;;;;;;;15.23;9.35;;;;;;;25.66;61.66;100351.41;1751627;80;21504;-59
2022/08/04 10:06:58;;;;;;;11.20;8.83;;;;;;;25.65;61.92;100350.53;1761798;81;21058;-57
2022/08/04 10:09:35;;;;;;;11.97;8.78;;;;;;;25.69;61.73;100353.61;1738042;81;21089;-58
2022/08/04 10:12:31;;;;;;;10.38;9.28;;;;;;;25.66;61.91;100350.00;1731094;83;21046;-58
2022/08/04 10:15:11;;;;;;;12.03;9.05;;;;;;;25.64;61.90;100346.63;1732240;83;21054;-59
2022/08/04 10:18:12;;;;;;;10.88;8.95;;;;;;;25.68;60.95;100350.53;1756193;81;21003;-58
2022/08/04 10:21:02;;;;;;;12.30;9.73;;;;;;;25.72;61.24;100347.39;1746200;81;21034;-57
2022/08/04 10:23:48;;;;;;;13.98;9.58;;;;;;;25.75;61.34;100353.81;1756874;81;21463;-58
2022/08/04 10:26:48;;;;;;;10.55;8.48;;;;;;;25.77;61.32;100348.73;1742832;81;21442;-59
2022/08/04 10:29:39;;;;;;;11.40;8.70;;;;;;;25.80;61.55;100355.16;1731641;83;21520;-58
2022/08/04 10:32:38;;;;;;;10.85;8.43;;;;;;;25.82;61.45;100348.67;1731914;81;21484;-58
2022/08/04 10:35:13;;;;;;;9.30;7.53;;;;;;;25.79;60.40;100351.52;1645539;86;21517;-58
2022/08/04 10:38:12;;;;;;;9.50;8.40;;;;;;;25.75;60.83;100342.59;1616714;87;21018;-59
2022/08/04 10:40:46;;;;;;;11.75;8.13;;;;;;;25.70;61.26;100335.63;1651015;87;21098;-57
2022/08/04 10:43:36;;;;;;;12.63;8.83;;;;;;;25.72;61.81;100336.17;1649282;87;21106;-57
2022/08/04 10:46:12;;;;;;;12.07;8.60;;;;;;;25.75;61.64;100338.37;1652162;85;21129;-59
2022/08/04 10:49:09;;;;;;;12.60;8.50;;;;;;;25.76;61.45;100334.44;1536853;93;21726;-59
2022/08/04 10:51:52;;;;;;;11.05;8.13;;;;;;;25.79;61.52;100324.01;1522923;94;21230;-58
2022/08/04 10:55:04;;;;;;;12.30;7.92;;;;;;;25.81;61.77;100322.57;1536472;93;21093;-58
2022/08/04 10:57:50;;;;;;;12.80;8.65;;;;;;;25.86;61.37;100320.27;1571814;91;21052;-60
2022/08/04 11:00:26;;;;;;;10.05;7.92;;;;;;;25.80;60.79;100315.28;1571761;90;21678;-58
2022/08/04 11:03:10;;;;;;;12.10;8.95;;;;;;;25.77;60.88;100317.30;1579642;90;21546;-58
2022/08/04 11:06:02;;;;;;;17.48;11.03;;;;;;;25.77;60.95;100322.07;1574690;90;21597;-58
2022/08/04 11:08:38;;;;;;;12.88;8.75;;;;;;;25.79;60.87;100315.59;1671156;86;21102;-58
2022/08/04 11:11:40;;;;;;;11.00;8.10;;;;;;;25.83;60.95;100306.83;1672998;84;21185;-57
2022/08/04 11:14:17;;;;;;;;;;;;;;;25.86;60.75;100314.65;1675346;85;21063;-57
2022/08/04 11:16:57;;;;;;;11.80;9.08;;;;;;;25.93;63.67;100322.70;1690160;84;20186;-57
2022/08/04 11:19:49;;;;;;;14.03;9.45;;;;;;;25.94;65.83;100325.20;1696718;84;21111;-59
2022/08/04 11:22:25;;;;;;;11.10;9.48;;;;;;;25.73;69.12;100329.42;1701284;84;21562;-61
2022/08/04 11:25:09;;;;;;;19.15;10.98;;;;;;;24.80;75.50;100323.05;1704510;84;21094;-59
2022/08/04 11:27:50;;;;;;;17.37;10.93;;;;;;;24.34;79.86;100321.98;1695466;84;21188;-59
2022/08/04 11:30:19;;;;;;;20.12;10.95;;;;;;;24.03;84.12;100321.85;1699616;84;21043;-61
2022/08/04 11:33:19;;;;;;;17.05;9.93;;;;;;;23.83;87.45;100321.40;1698202;84;21631;-60
2022/08/04 11:36:06;;;;;;;16.80;11.22;;;;;;;23.66;89.96;100314.77;1698541;84;21046;-61
2022/08/04 11:39:03;;;;;;;13.50;10.13;;;;;;;23.52;92.17;100316.47;1701356;84;21475;-60
2022/08/04 11:41:53;;;;;;;14.23;10.87;;;;;;;23.48;93.96;100307.54;1701753;84;21074;-59
2022/08/04 11:45:06;;;;;;;12.18;9.63;;;;;;;23.38;94.26;100305.02;1674346;84;21556;-60
2022/08/04 11:47:59;;;;;;;12.03;9.78;;;;;;;23.34;94.20;100301.13;1730481;83;21521;-58
2022/08/04 11:50:50;;;;;;;11.55;10.20;;;;;;;23.30;94.20;100297.78;1711249;82;21027;-59
2022/08/04 11:53:25;;;;;;;16.57;9.98;;;;;;;23.31;94.45;100298.06;1721653;83;21001;-59
2022/08/04 11:55:59;;;;;;;12.13;9.13;;;;;;;23.40;94.90;100285.16;1731341;83;21031;-58
2022/08/04 11:58:31;;;;;;;12.47;9.03;;;;;;;23.52;94.44;100284.87;1705594;83;21050;-60
2022/08/04 12:01:27;;;;;;;11.40;9.10;;;;;;;23.54;91.61;100288.22;1733342;83;21010;-59
2022/08/04 12:04:17;;;;;;;12.65;8.88;;;;;;;23.58;90.89;100281.80;1733323;83;21487;-58
2022/08/04 12:07:03;;;;;;;10.63;9.10;;;;;;;23.65;88.74;100280.09;1733360;82;21057;-59
2022/08/04 12:10:05;;;;;;;12.50;9.35;;;;;;;23.64;85.20;100282.05;1726865;83;21062;-60
2022/08/04 12:12:45;;;;;;;11.73;9.18;;;;;;;23.69;86.50;100289.02;1700483;84;21078;-61
2022/08/04 12:15:29;;;;;;;14.28;9.13;;;;;;;23.71;86.59;100295.72;1706582;83;21023;-61
2022/08/04 12:18:36;;;;;;;12.95;8.43;;;;;;;23.69;85.84;100290.41;1718358;83;21039;-60
2022/08/04 12:21:14;;;;;;;11.28;8.85;;;;;;;23.73;85.93;100296.83;1718550;83;21027;-60
2022/08/04 12:23:45;;;;;;;9.70;8.65;;;;;;;23.72;83.38;100297.39;1697050;83;21014;-61
2022/08/04 12:26:20;;;;;;;10.10;7.87;;;;;;;23.78;84.15;100305.20;1730482;83;21027;-61
2022/08/04 12:28:50;;;;;;;16.55;10.68;;;;;;;23.84;84.18;100304.05;1723435;83;21042;-60
2022/08/04 12:31:56;;;;;;;11.08;9.58;;;;;;;23.84;85.33;100302.65;1701173;84;21046;-60